Time;durP1;ratioP1;P1;durP2;ratioP2;P2;SDS_P1;SDS_P2;PMS_P1;PMS_P2;Temp;Humidity;BMP_temperature;BMP_pressure;BME280_temperature;BME280_humidity;BME280_pressure;Samples;Min_cycle;Max_cycle;Signal;HPM_P1;HPM_P2
2022/02/25 00:05:25;;;;;;;6.20;2.03;;;3.20;99.90;;;;;;6721328;88;20860;-72
2022/02/25 00:15:26;;;;;;;6.95;1.90;;;3.20;99.90;;;;;;6713453;88;20548;-72
2022/02/25 00:25:26;;;;;;;5.75;1.62;;;3.20;99.90;;;;;;6712441;88;20216;-72
2022/02/25 00:35:27;;;;;;;7.05;1.35;;;3.20;99.90;;;;;;6710512;88;20692;-72
2022/02/25 00:45:28;;;;;;;7.68;1.33;;;3.20;99.90;;;;;;6719036;88;20201;-73
2022/02/25 00:55:28;;;;;;;8.75;1.10;;;3.00;99.90;;;;;;6713774;88;20194;-72
2022/02/25 01:05:29;;;;;;;3.83;0.80;;;3.00;99.90;;;;;;6716625;88;20170;-72
2022/02/25 01:15:30;;;;;;;7.57;1.15;;;3.10;99.90;;;;;;6726335;88;20190;-73
2022/02/25 01:25:30;;;;;;;4.50;0.70;;;3.20;99.90;;;;;;6715899;88;20182;-72
2022/02/25 01:35:31;;;;;;;4.05;0.73;;;3.10;99.90;;;;;;6708689;88;20174;-73
2022/02/25 01:45:35;;;;;;;5.20;0.80;;;3.20;99.90;;;;;;6704779;88;20186;-72
2022/02/25 01:55:39;;;;;;;3.92;0.60;;;3.00;99.90;;;;;;6712970;88;20714;-72
2022/02/25 02:05:39;;;;;;;4.57;1.00;;;3.00;99.90;;;;;;6714082;88;20215;-72
2022/02/25 02:15:40;;;;;;;3.55;0.73;;;2.80;99.90;;;;;;6718836;88;20186;-72
2022/02/25 02:25:41;;;;;;;3.75;0.90;;;2.90;99.90;;;;;;6712548;88;20224;-73
2022/02/25 02:35:42;;;;;;;5.37;0.93;;;2.80;99.90;;;;;;6712441;88;20660;-72
2022/02/25 02:45:42;;;;;;;5.87;0.90;;;2.80;99.90;;;;;;6712137;88;20218;-73
2022/02/25 02:55:45;;;;;;;4.43;0.90;;;2.70;99.90;;;;;;6715006;88;21114;-72
2022/02/25 03:05:46;;;;;;;6.40;0.80;;;2.50;99.90;;;;;;6714963;88;20204;-72
2022/02/25 03:15:47;;;;;;;3.83;0.70;;;2.50;99.90;;;;;;6723341;88;20170;-73
2022/02/25 03:25:47;;;;;;;3.78;1.02;;;2.70;99.90;;;;;;6716828;88;20222;-72
2022/02/25 03:35:48;;;;;;;3.60;0.95;;;2.60;99.90;;;;;;6713727;88;20692;-72
2022/02/25 03:45:48;;;;;;;4.37;0.70;;;2.70;99.90;;;;;;6722030;88;20191;-72
2022/02/25 03:55:49;;;;;;;6.53;0.90;;;2.60;99.90;;;;;;6719143;88;20312;-72
2022/02/25 04:05:50;;;;;;;5.47;0.90;;;2.60;99.90;;;;;;6713848;88;20197;-72
2022/02/25 04:15:50;;;;;;;6.87;0.90;;;2.60;99.90;;;;;;6713770;88;20854;-72
2022/02/25 04:25:51;;;;;;;5.10;0.85;;;2.50;99.90;;;;;;6714640;88;20228;-72
2022/02/25 04:35:51;;;;;;;5.50;0.80;;;2.40;99.90;;;;;;6727497;88;20494;-72
2022/02/25 04:45:52;;;;;;;1.48;0.50;;;2.30;99.90;;;;;;6713504;88;20197;-72
2022/02/25 04:55:52;;;;;;;4.78;0.98;;;2.20;99.90;;;;;;6713985;88;20359;-72
2022/02/25 05:05:53;;;;;;;4.53;0.50;;;2.20;99.90;;;;;;6717194;88;20198;-72
2022/02/25 05:26:13;;;;;;;5.68;0.98;;;2.10;99.90;;;;;;6710673;88;20265;-72
2022/02/25 05:36:16;;;;;;;5.10;0.90;;;2.20;99.90;;;;;;6713182;88;20210;-72
2022/02/25 05:46:17;;;;;;;5.97;0.90;;;2.10;99.90;;;;;;6713087;88;20182;-72
2022/02/25 05:56:18;;;;;;;10.32;0.75;;;1.90;99.90;;;;;;6713390;88;20249;-72
2022/02/25 06:06:19;;;;;;;5.22;0.95;;;1.80;99.90;;;;;;6716067;88;20698;-73
2022/02/25 06:16:20;;;;;;;8.18;1.10;;;1.80;99.90;;;;;;6712458;88;20192;-73
2022/02/25 06:26:20;;;;;;;8.80;1.02;;;1.80;99.90;;;;;;6717250;88;20844;-73
2022/02/25 06:36:21;;;;;;;4.45;0.80;;;1.70;99.90;;;;;;6719469;88;20642;-74
2022/02/25 06:46:22;;;;;;;5.62;0.68;;;1.70;99.90;;;;;;6725698;88;20182;-73
2022/02/25 06:56:23;;;;;;;6.97;1.12;;;1.80;99.90;;;;;;6724432;88;20705;-73
2022/02/25 07:06:24;;;;;;;6.80;1.27;;;2.00;99.90;;;;;;6720724;88;20234;-73
2022/02/25 07:16:24;;;;;;;5.93;1.08;;;2.20;99.90;;;;;;6716686;88;20972;-73
2022/02/25 07:26:25;;;;;;;5.53;0.98;;;2.40;99.90;;;;;;6715171;88;20334;-73
2022/02/25 07:36:25;;;;;;;5.57;0.90;;;2.50;99.90;;;;;;6713288;88;20318;-72
2022/02/25 07:46:26;;;;;;;6.47;1.10;;;2.50;99.90;;;;;;6713719;88;20234;-73
2022/02/25 07:56:26;;;;;;;11.57;1.47;;;2.90;99.90;;;;;;6712727;88;20310;-72
2022/02/25 08:06:27;;;;;;;5.25;0.98;;;3.30;99.90;;;;;;6706651;88;20960;-73
2022/02/25 08:16:27;;;;;;;3.58;0.85;;;3.60;99.90;;;;;;6714623;88;20336;-72
2022/02/25 08:26:28;;;;;;;4.43;0.80;;;3.90;99.90;;;;;;6710351;88;20271;-73
2022/02/25 08:36:29;;;;;;;4.65;0.90;;;4.00;99.90;;;;;;6710747;88;20661;-73
2022/02/25 08:46:31;;;;;;;9.45;1.20;;;4.10;99.90;;;;;;6710760;88;20951;-73
2022/02/25 08:56:32;;;;;;;6.32;1.37;;;4.20;99.90;;;;;;6710322;88;20218;-72
2022/02/25 09:06:36;;;;;;;6.62;1.23;;;4.00;99.90;;;;;;6710891;88;20706;-72
2022/02/25 09:16:36;;;;;;;10.43;1.40;;;4.20;99.90;;;;;;6710790;88;21026;-72
2022/02/25 09:26:37;;;;;;;8.90;1.17;;;4.30;99.90;;;;;;6725210;88;20197;-70
2022/02/25 09:46:44;;;;;;;6.05;1.45;;;4.50;99.90;;;;;;6704924;88;20179;-76
2022/02/25 09:56:46;;;;;;;9.52;1.10;;;4.50;99.90;;;;;;6705472;88;20205;-76
2022/02/25 10:06:47;;;;;;;4.10;1.00;;;4.80;99.90;;;;;;6704620;88;20313;-76
2022/02/25 10:17:05;;;;;;;8.13;1.48;;;5.10;99.90;;;;;;6702515;88;20198;-76
2022/02/25 10:27:19;;;;;;;11.45;1.60;;;5.10;99.90;;;;;;6702550;88;20198;-76
2022/02/25 10:37:20;;;;;;;8.27;1.52;;;5.50;99.90;;;;;;6697830;88;20198;-76
2022/02/25 10:47:34;;;;;;;8.82;1.50;;;6.60;99.90;;;;;;6696082;88;20239;-75
2022/02/25 10:57:35;;;;;;;12.05;2.10;;;6.90;99.90;;;;;;6702863;88;20251;-77
2022/02/25 11:07:38;;;;;;;10.07;1.60;;;6.70;99.90;;;;;;6701625;88;20197;-76
2022/02/25 11:17:42;;;;;;;8.57;1.48;;;7.30;99.90;;;;;;6706088;88;20213;-76
2022/02/25 11:27:44;;;;;;;8.40;1.50;;;7.70;99.90;;;;;;6695899;88;20297;-77
2022/02/25 11:37:50;;;;;;;9.88;1.83;;;7.50;99.90;;;;;;6695905;88;20215;-78
2022/02/25 11:47:57;;;;;;;11.77;2.00;;;7.00;99.90;;;;;;6705352;88;20349;-77
2022/02/25 11:58:36;;;;;;;6.53;1.65;;;6.90;99.90;;;;;;6702096;88;20283;-77
2022/02/25 12:08:37;;;;;;;12.65;2.00;;;7.00;99.90;;;;;;6703142;88;20234;-77
2022/02/25 12:18:39;;;;;;;8.73;1.60;;;7.20;99.90;;;;;;6698126;88;20586;-78
2022/02/25 12:28:48;;;;;;;8.80;1.70;;;7.20;99.90;;;;;;6697050;88;20691;-77
2022/02/25 12:38:55;;;;;;;7.37;1.45;;;8.20;99.90;;;;;;6705435;88;20212;-78
2022/02/25 12:48:56;;;;;;;11.18;1.60;;;8.50;99.90;;;;;;6707423;88;20557;-78
2022/02/25 12:59:02;;;;;;;6.70;1.42;;;8.50;99.90;;;;;;6706674;88;20217;-78
2022/02/25 13:09:05;;;;;;;;;;;10.30;99.90;;;;;;6703010;88;20935;-78
2022/02/25 13:19:22;;;;;;;7.75;1.60;;;8.90;99.90;;;;;;6707214;88;20553;-78
2022/02/25 13:29:23;;;;;;;11.20;1.75;;;7.70;99.90;;;;;;6701526;88;20205;-77
2022/02/25 13:39:29;;;;;;;7.10;1.50;;;7.40;99.90;;;;;;6705557;88;20624;-77
2022/02/25 14:00:00;;;;;;;11.30;2.00;;;5.30;99.90;;;;;;6664279;88;20198;-77
2022/02/25 14:10:04;;;;;;;10.23;1.92;;;6.00;99.90;;;;;;6702841;88;20198;-78
2022/02/25 14:20:12;;;;;;;8.70;1.60;;;6.50;99.90;;;;;;6690973;88;20235;-77
2022/02/25 14:30:13;;;;;;;9.68;1.50;;;6.80;99.90;;;;;;6702836;88;20252;-77
2022/02/25 14:40:13;;;;;;;4.93;1.45;;;6.30;99.90;;;;;;6703299;88;20508;-76
2022/02/25 14:50:14;;;;;;;4.53;0.70;;;6.30;99.90;;;;;;6703206;88;20210;-77
2022/02/25 15:00:16;;;;;;;5.05;1.20;;;6.10;99.90;;;;;;6703397;88;20195;-76
2022/02/25 15:10:19;;;;;;;1.50;0.40;;;5.90;99.90;;;;;;6698190;88;20202;-77
2022/02/25 15:20:20;;;;;;;2.33;0.80;;;4.30;99.90;;;;;;6684277;88;20248;-77
2022/02/25 15:30:20;;;;;;;5.32;2.00;;;3.10;99.90;;;;;;6688344;88;20409;-76
2022/02/25 15:40:43;;;;;;;6.97;1.98;;;3.00;99.90;;;;;;6711224;77;20668;-77
2022/02/25 15:50:43;;;;;;;6.25;2.40;;;3.30;99.90;;;;;;6685699;88;20242;-76
2022/02/25 16:00:45;;;;;;;6.68;2.60;;;3.20;99.90;;;;;;6679797;89;20292;-77
2022/02/25 16:10:45;;;;;;;10.27;3.08;;;3.20;99.90;;;;;;6679798;89;20336;-80
2022/02/25 16:20:46;;;;;;;8.80;3.03;;;3.30;99.90;;;;;;6674146;89;20190;-80
2022/02/25 16:30:47;;;;;;;9.25;3.72;;;3.20;99.90;;;;;;6685303;88;20429;-77
2022/02/25 16:40:47;;;;;;;9.65;3.33;;;3.20;99.90;;;;;;6672403;89;20581;-80
2022/02/25 16:50:49;;;;;;;8.52;3.25;;;3.30;99.90;;;;;;6710220;88;20670;-84
2022/02/25 17:00:49;;;;;;;11.07;3.87;;;3.10;99.90;;;;;;6689003;89;20203;-79
2022/02/25 17:10:50;;;;;;;13.23;4.05;;;3.50;99.90;;;;;;6681383;89;20213;-79
2022/02/25 17:20:51;;;;;;;9.75;3.50;;;3.80;99.90;;;;;;6677101;89;20210;-79
2022/02/25 17:30:51;;;;;;;9.32;3.67;;;3.50;99.90;;;;;;6665317;89;20297;-79
2022/02/25 17:40:52;;;;;;;11.07;4.37;;;3.20;99.90;;;;;;6670676;89;20227;-80
2022/02/25 17:50:52;;;;;;;15.30;5.85;;;3.50;99.90;;;;;;6663728;89;21195;-78
2022/02/25 18:00:53;;;;;;;13.30;5.80;;;3.40;99.90;;;;;;6664957;89;20216;-76
2022/02/25 18:10:55;;;;;;;15.15;4.50;;;3.30;99.90;;;;;;6669950;88;20378;-77
2022/02/25 18:20:55;;;;;;;11.40;4.78;;;3.20;99.90;;;;;;6678099;88;20278;-76
2022/02/25 18:30:56;;;;;;;10.20;4.47;;;2.80;99.90;;;;;;6676989;89;20200;-77
2022/02/25 18:40:57;;;;;;;15.07;5.43;;;2.60;99.90;;;;;;6672545;89;20223;-76
2022/02/25 18:50:57;;;;;;;18.05;5.47;;;2.50;99.90;;;;;;6666082;89;20215;-76
2022/02/25 19:00:58;;;;;;;12.43;3.90;;;2.30;99.90;;;;;;6681871;89;20332;-77
2022/02/25 19:10:59;;;;;;;8.85;2.95;;;2.70;99.90;;;;;;6680951;89;20213;-77
2022/02/25 19:21:01;;;;;;;12.93;2.60;;;3.10;99.90;;;;;;6669644;89;20824;-77
2022/02/25 19:31:01;;;;;;;11.05;2.83;;;3.30;99.90;;;;;;6680709;88;20651;-77
2022/02/25 19:41:02;;;;;;;8.37;1.80;;;3.50;99.90;;;;;;6678733;88;20198;-77
2022/02/25 19:51:03;;;;;;;12.07;1.90;;;3.50;99.90;;;;;;6683014;88;20518;-77
2022/02/25 20:01:04;;;;;;;11.35;2.50;;;3.60;99.90;;;;;;6679184;88;20517;-78
2022/02/25 20:11:04;;;;;;;13.02;2.10;;;3.50;99.90;;;;;;6686930;88;20232;-78
2022/02/25 20:21:05;;;;;;;11.68;2.50;;;3.50;99.90;;;;;;6685206;88;20229;-76
2022/02/25 20:31:06;;;;;;;7.72;2.17;;;3.60;99.90;;;;;;6681219;88;20284;-77
2022/02/25 20:41:07;;;;;;;16.08;2.15;;;3.70;99.90;;;;;;6688583;89;20217;-75
2022/02/25 20:51:08;;;;;;;11.05;1.85;;;3.70;99.90;;;;;;6668603;89;20215;-78
2022/02/25 21:01:09;;;;;;;10.13;2.10;;;3.70;99.90;;;;;;6673378;88;20199;-75
2022/02/25 21:11:15;;;;;;;9.30;2.03;;;3.60;99.90;;;;;;6674990;88;20206;-76
2022/02/25 21:21:16;;;;;;;16.25;2.08;;;3.50;99.90;;;;;;6664865;89;20202;-75
2022/02/25 21:31:16;;;;;;;18.42;2.20;;;3.60;99.90;;;;;;6676086;89;20176;-77
2022/02/25 21:41:17;;;;;;;11.70;2.08;;;3.60;99.90;;;;;;6694002;77;20211;-73
2022/02/25 21:51:18;;;;;;;15.10;2.60;;;3.50;99.90;;;;;;6706912;88;20242;-72
2022/02/25 22:01:18;;;;;;;12.95;2.45;;;3.40;99.90;;;;;;6717425;88;20181;-73
2022/02/25 22:11:20;;;;;;;9.55;2.15;;;3.40;99.90;;;;;;6722888;88;20726;-73
2022/02/25 22:21:22;;;;;;;10.20;2.17;;;3.40;99.90;;;;;;6713389;88;20871;-73
2022/02/25 22:31:22;;;;;;;14.50;2.47;;;3.40;99.90;;;;;;6708752;88;20362;-73
2022/02/25 22:41:23;;;;;;;14.60;2.08;;;3.40;99.90;;;;;;6709488;88;20269;-73
2022/02/25 23:01:43;;;;;;;14.45;2.47;;;3.10;99.90;;;;;;6720146;88;20225;-73
2022/02/25 23:11:45;;;;;;;8.18;2.25;;;3.00;99.90;;;;;;6712704;88;20345;-73
2022/02/25 23:21:45;;;;;;;10.05;2.08;;;2.90;99.90;;;;;;6712446;88;20186;-73
2022/02/25 23:31:46;;;;;;;14.45;2.40;;;2.70;99.90;;;;;;6716807;88;20249;-73
2022/02/25 23:41:46;;;;;;;18.10;2.37;;;2.60;99.90;;;;;;6716401;88;21011;-71
2022/02/25 23:51:47;;;;;;;15.90;2.70;;;2.60;99.90;;;;;;6713762;88;20197;-70
